Thunder radar more information blitzortung!


Radar de pluja more information rain snow radar


Visita la nostra xarxa de llocs de meteo:

Template documentation
and downloads

And another site



No particular awareness of the weather is required.    There are no Weather-warnings

Pagina Historial Weather Underground text

Diari Resum Juliol 8, 2017 Unitats:  Tant    Imperial   Mètric
« Previous Dia
SegĂźent Dia »
Diari Setmana Mensual Anual Personalitzada
  Maxima: Minima: Media:
Temperatura: TemperatureC °F /  -17.8 °C 20.3 °F /  -6.5 °C 24.8 °F /  -4 °C
Punt de rosada: DewpointC °F /  -17.8 °C 8.2 °F /  -13.2 °C 15.9 °F /  -8.9 °C
Humitat: Humidity % 33 % 58 %
Wind Speed: WindSpeedKMH mph /  0 km/h - 9.5 mph /  15.3 km/h
RĂ fegues de vent: WindSpeedGustKMH mph /  0 km/h - -
Vent:- - SE
Pression baro: PressurehPa in /  0 hPa 1009.0 in /  34164.7 hPa -
Precipitacions: 1.0 in /  25.4 mm    
Historical Graphs
 
 
Dades de taula per Juliol 8, 2017
Temps Temperatura Punt de rosada Pression baro Vent Wind Speed RĂ fegues de vent Humitat Rainfall Rate (Hourly)
TemperatureC °F /  -17.8 °C DewpointC °F /  -17.8 °C PressurehPa in /  0 hPa Calm     Humidity % HourlyPrecipMM in /  0 mm
00:00 25.2 °F /  -3.8 °C 11.4 °F /  -11.4 °C 1013.8 in /  34327.3 hPa East 3.7 mph /  6 km/h 3.7 mph /  6 km/h 42 % 0.0 in /  0 mm
10:38 24.3 °F /  -4.3 °C 9.1 °F /  -12.7 °C 1013.8 in /  34327.3 hPa SE 1.9 mph /  3.1 km/h   38 % 0.0 in /  0 mm
10:43 24.3 °F /  -4.3 °C 9.1 °F /  -12.7 °C 1013.8 in /  34327.3 hPa SE 3.7 mph /  6 km/h   38 % 0.0 in /  0 mm
10:48 24.3 °F /  -4.3 °C 9.1 °F /  -12.7 °C 1013.8 in /  34327.3 hPa SE 3.7 mph /  6 km/h   38 % 0.0 in /  0 mm
10:53 25.1 °F /  -3.8 °C 8.6 °F /  -13 °C 1011.7 in /  34256.2 hPa ENE 5.6 mph /  9 km/h 5.6 mph /  9 km/h 35 % 0.0 in /  0 mm
10:58 25.4 °F /  -3.7 °C 8.4 °F /  -13.1 °C 1011.7 in /  34256.2 hPa NNW 3.7 mph /  6 km/h 3.7 mph /  6 km/h 34 % 0.0 in /  0 mm
10:59 25.4 °F /  -3.7 °C 8.4 °F /  -13.1 °C 1011.7 in /  34256.2 hPa NNW 3.7 mph /  6 km/h 3.7 mph /  6 km/h 34 % 0.0 in /  0 mm
11:04 25.7 °F /  -3.5 °C 8.2 °F /  -13.2 °C 1011.7 in /  34256.2 hPa NE 10.0 mph /  16.1 km/h 10.0 mph /  16.1 km/h 33 % 0.0 in /  0 mm
11:09 25.1 °F /  -3.8 °C 9.0 °F /  -12.8 °C 1011.7 in /  34256.2 hPa NNE 7.4 mph /  11.9 km/h 7.4 mph /  11.9 km/h 36 % 0.0 in /  0 mm
11:14 24.0 °F /  -4.4 °C 9.6 °F /  -12.4 °C 1011.7 in /  34256.2 hPa ENE 5.6 mph /  9 km/h 5.6 mph /  9 km/h 40 % 0.0 in /  0 mm
11:19 23.8 °F /  -4.6 °C 9.8 °F /  -12.3 °C 1011.7 in /  34256.2 hPa NNE 9.3 mph /  15 km/h 9.3 mph /  15 km/h 41 % 0.0 in /  0 mm
11:24 24.4 °F /  -4.2 °C 9.9 °F /  -12.3 °C 1011.7 in /  34256.2 hPa ENE 11.1 mph /  17.9 km/h 11.1 mph /  17.9 km/h 40 % 0.0 in /  0 mm
11:29 25.1 °F /  -3.8 °C 9.8 °F /  -12.3 °C 1011.7 in /  34256.2 hPa ESE 7.4 mph /  11.9 km/h 7.4 mph /  11.9 km/h 38 % 0.0 in /  0 mm
11:34 25.1 °F /  -3.8 °C 10.2 °F /  -12.1 °C 1011.7 in /  34256.2 hPa East 3.7 mph /  6 km/h 3.7 mph /  6 km/h 39 % 0.0 in /  0 mm
11:39 25.9 °F /  -3.4 °C 10.1 °F /  -12.2 °C 1011.7 in /  34256.2 hPa East 3.7 mph /  6 km/h 3.7 mph /  6 km/h 37 % 0.0 in /  0 mm
11:44 25.6 °F /  -3.6 °C 11.4 °F /  -11.4 °C 1011.7 in /  34256.2 hPa SW 5.8 mph /  9.3 km/h 5.8 mph /  9.3 km/h 41 % 0.0 in /  0 mm
11:49 24.6 °F /  -4.1 °C 11.2 °F /  -11.6 °C 1011.7 in /  34256.2 hPa West 3.7 mph /  6 km/h 3.9 mph /  6.3 km/h 43 % 0.0 in /  0 mm
11:54 24.8 °F /  -4 °C 10.7 °F /  -11.8 °C 1011.7 in /  34256.2 hPa WNW 2.3 mph /  3.7 km/h 2.3 mph /  3.7 km/h 41 % 0.0 in /  0 mm
11:59 25.3 °F /  -3.7 °C 10.3 °F /  -12.1 °C 1011.7 in /  34256.2 hPa West 2.6 mph /  4.2 km/h   39 % 0.0 in /  0 mm
12:04 25.5 °F /  -3.6 °C 11.3 °F /  -11.5 °C 1011.7 in /  34256.2 hPa West 1.9 mph /  3.1 km/h   41 % 0.0 in /  0 mm
12:09 25.7 °F /  -3.5 °C 11.1 °F /  -11.6 °C 1010.7 in /  34222.3 hPa WSW 3.9 mph /  6.3 km/h 3.9 mph /  6.3 km/h 40 % 0.0 in /  0 mm
12:14 25.9 °F /  -3.4 °C 10.9 °F /  -11.7 °C 1010.7 in /  34222.3 hPa SW 3.7 mph /  6 km/h 3.7 mph /  6 km/h 39 % 0.0 in /  0 mm
12:19 26.3 °F /  -3.2 °C 11.2 °F /  -11.6 °C 1010.7 in /  34222.3 hPa West 5.6 mph /  9 km/h 5.6 mph /  9 km/h 39 % 0.0 in /  0 mm
12:24 26.2 °F /  -3.2 °C 11.2 °F /  -11.6 °C 1011.7 in /  34256.2 hPa WSW 1.9 mph /  3.1 km/h 2.3 mph /  3.7 km/h 39 % 0.0 in /  0 mm
12:29 26.2 °F /  -3.2 °C 11.2 °F /  -11.6 °C 1011.7 in /  34256.2 hPa WSW 5.0 mph /  8 km/h 5.0 mph /  8 km/h 39 % 0.0 in /  0 mm
12:34 26.2 °F /  -3.2 °C 11.2 °F /  -11.6 °C 1011.7 in /  34256.2 hPa SW 11.9 mph /  19.2 km/h 11.9 mph /  19.2 km/h 39 % 0.0 in /  0 mm
12:39 26.3 °F /  -3.2 °C 11.2 °F /  -11.6 °C 1011.7 in /  34256.2 hPa SW 11.1 mph /  17.9 km/h 11.1 mph /  17.9 km/h 39 % 0.0 in /  0 mm
12:44 25.9 °F /  -3.4 °C 11.3 °F /  -11.5 °C 1012.8 in /  34293.4 hPa South 11.1 mph /  17.9 km/h 11.1 mph /  17.9 km/h 40 % 0.0 in /  0 mm
12:49 26.2 °F /  -3.2 °C 10.8 °F /  -11.8 °C 1012.8 in /  34293.4 hPa ESE 13.0 mph /  20.9 km/h 13.0 mph /  20.9 km/h 38 % 0.0 in /  0 mm
12:54 25.6 °F /  -3.6 °C 11.0 °F /  -11.7 °C 1011.7 in /  34256.2 hPa NNW 7.4 mph /  11.9 km/h 7.4 mph /  11.9 km/h 40 % 0.0 in /  0 mm
12:59 25.1 °F /  -3.8 °C 10.9 °F /  -11.7 °C 1011.7 in /  34256.2 hPa SSW 7.4 mph /  11.9 km/h 7.4 mph /  11.9 km/h 41 % 0.0 in /  0 mm
13:04 23.9 °F /  -4.5 °C 10.9 °F /  -11.7 °C 1011.7 in /  34256.2 hPa WSW 7.4 mph /  11.9 km/h 7.4 mph /  11.9 km/h 44 % 1.0 in /  25.4 mm
13:09 23.5 °F /  -4.7 °C 11.2 °F /  -11.6 °C 1012.8 in /  34293.4 hPa SSE 3.7 mph /  6 km/h 3.7 mph /  6 km/h 46 % 1.0 in /  25.4 mm
13:14 23.4 °F /  -4.8 °C 12.1 °F /  -11.1 °C 1012.8 in /  34293.4 hPa South 3.7 mph /  6 km/h 3.7 mph /  6 km/h 49 % 1.0 in /  25.4 mm
13:19 23.6 °F /  -4.7 °C 12.6 °F /  -10.8 °C 1012.8 in /  34293.4 hPa SSE 3.2 mph /  5.1 km/h 3.2 mph /  5.1 km/h 50 % 1.0 in /  25.4 mm
13:24 23.9 °F /  -4.5 °C 13.4 °F /  -10.3 °C 1012.8 in /  34293.4 hPa South 3.7 mph /  6 km/h 3.7 mph /  6 km/h 52 % 1.0 in /  25.4 mm
13:29 24.1 °F /  -4.4 °C 13.9 °F /  -10.1 °C 1012.8 in /  34293.4 hPa ESE 5.6 mph /  9 km/h 5.6 mph /  9 km/h 53 % 1.0 in /  25.4 mm
13:34 24.3 °F /  -4.3 °C 14.1 °F /  -9.9 °C 1012.8 in /  34293.4 hPa ESE 5.6 mph /  9 km/h 5.6 mph /  9 km/h 53 % 1.0 in /  25.4 mm
13:39 24.6 °F /  -4.1 °C 14.7 °F /  -9.6 °C 1012.8 in /  34293.4 hPa ESE 10.0 mph /  16.1 km/h 10.0 mph /  16.1 km/h 54 % 1.0 in /  25.4 mm
13:44 24.7 °F /  -4.1 °C 15.1 °F /  -9.4 °C 1012.8 in /  34293.4 hPa ESE 11.1 mph /  17.9 km/h 11.1 mph /  17.9 km/h 55 % 1.0 in /  25.4 mm
13:49 24.9 °F /  -3.9 °C 15.2 °F /  -9.3 °C 1012.8 in /  34293.4 hPa East 13.0 mph /  20.9 km/h 13.0 mph /  20.9 km/h 55 % 1.0 in /  25.4 mm
13:54 25.0 °F /  -3.9 °C 15.1 °F /  -9.4 °C 1013.8 in /  34327.3 hPa ESE 16.7 mph /  26.9 km/h 16.7 mph /  26.9 km/h 54 % 1.0 in /  25.4 mm
13:59 25.1 °F /  -3.8 °C 14.8 °F /  -9.6 °C 1013.8 in /  34327.3 hPa NNE 16.7 mph /  26.9 km/h 16.7 mph /  26.9 km/h 53 % 1.0 in /  25.4 mm
14:04 25.2 °F /  -3.8 °C 14.9 °F /  -9.5 °C 1013.8 in /  34327.3 hPa SE 13.0 mph /  20.9 km/h 13.0 mph /  20.9 km/h 53 % 0.0 in /  0 mm
14:09 25.3 °F /  -3.7 °C 15.1 °F /  -9.4 °C 1013.8 in /  34327.3 hPa East 13.0 mph /  20.9 km/h 13.0 mph /  20.9 km/h 53 % 0.0 in /  0 mm
14:14 25.5 °F /  -3.6 °C 15.2 °F /  -9.3 °C 1013.8 in /  34327.3 hPa East 18.5 mph /  29.8 km/h 18.5 mph /  29.8 km/h 53 % 0.0 in /  0 mm
14:19 25.6 °F /  -3.6 °C 15.3 °F /  -9.3 °C 1013.8 in /  34327.3 hPa SSE 18.5 mph /  29.8 km/h 18.5 mph /  29.8 km/h 53 % 0.0 in /  0 mm
14:24 25.6 °F /  -3.6 °C 15.3 °F /  -9.3 °C 1012.8 in /  34293.4 hPa NE 24.1 mph /  38.8 km/h 24.1 mph /  38.8 km/h 53 % 0.0 in /  0 mm
14:29 25.5 °F /  -3.6 °C 15.8 °F /  -9 °C 1012.8 in /  34293.4 hPa ESE 14.8 mph /  23.8 km/h 14.8 mph /  23.8 km/h 55 % 0.0 in /  0 mm
14:34 25.6 °F /  -3.6 °C 15.9 °F /  -8.9 °C 1012.8 in /  34293.4 hPa South 15.8 mph /  25.4 km/h 15.8 mph /  25.4 km/h 55 % 0.0 in /  0 mm
14:39 25.8 °F /  -3.4 °C 15.8 °F /  -9 °C 1012.8 in /  34293.4 hPa SE 19.0 mph /  30.6 km/h 19.0 mph /  30.6 km/h 54 % 0.0 in /  0 mm
14:44 26.1 °F /  -3.3 °C 16.3 °F /  -8.7 °C 1012.8 in /  34293.4 hPa East 18.5 mph /  29.8 km/h 18.5 mph /  29.8 km/h 55 % 0.0 in /  0 mm
14:49 26.1 °F /  -3.3 °C 15.8 °F /  -9 °C 1012.8 in /  34293.4 hPa ENE 18.5 mph /  29.8 km/h 18.5 mph /  29.8 km/h 53 % 0.0 in /  0 mm
14:54 26.0 °F /  -3.3 °C 15.7 °F /  -9.1 °C 1012.8 in /  34293.4 hPa ESE 13.0 mph /  20.9 km/h 13.0 mph /  20.9 km/h 53 % 0.0 in /  0 mm
14:59 26.0 °F /  -3.3 °C 15.7 °F /  -9.1 °C 1012.8 in /  34293.4 hPa ENE 16.1 mph /  25.9 km/h 16.1 mph /  25.9 km/h 53 % 0.0 in /  0 mm
15:04 26.0 °F /  -3.3 °C 15.7 °F /  -9.1 °C 1012.8 in /  34293.4 hPa East 23.3 mph /  37.5 km/h 23.3 mph /  37.5 km/h 53 % 0.0 in /  0 mm
15:09 25.9 °F /  -3.4 °C 15.6 °F /  -9.1 °C 1012.8 in /  34293.4 hPa ENE 16.7 mph /  26.9 km/h 16.7 mph /  26.9 km/h 53 % 0.0 in /  0 mm
15:14 25.6 °F /  -3.6 °C 15.9 °F /  -8.9 °C 1012.8 in /  34293.4 hPa ENE 18.5 mph /  29.8 km/h 18.5 mph /  29.8 km/h 55 % 0.0 in /  0 mm
15:19 25.4 °F /  -3.7 °C 16.0 °F /  -8.9 °C 1012.8 in /  34293.4 hPa NNE 13.0 mph /  20.9 km/h 13.0 mph /  20.9 km/h 56 % 0.0 in /  0 mm
15:24 25.6 °F /  -3.6 °C 16.2 °F /  -8.8 °C 1012.8 in /  34293.4 hPa ENE 13.0 mph /  20.9 km/h 13.0 mph /  20.9 km/h 56 % 0.0 in /  0 mm
15:29 25.7 °F /  -3.5 °C 16.3 °F /  -8.7 °C 1012.8 in /  34293.4 hPa East 16.7 mph /  26.9 km/h 16.7 mph /  26.9 km/h 56 % 0.0 in /  0 mm
15:34 25.9 °F /  -3.4 °C 16.4 °F /  -8.7 °C 1012.8 in /  34293.4 hPa ESE 18.5 mph /  29.8 km/h 18.5 mph /  29.8 km/h 56 % 0.0 in /  0 mm
15:39 26.0 °F /  -3.3 °C 16.6 °F /  -8.6 °C 1011.7 in /  34256.2 hPa East 16.7 mph /  26.9 km/h 16.7 mph /  26.9 km/h 56 % 0.0 in /  0 mm
15:44 26.2 °F /  -3.2 °C 16.7 °F /  -8.5 °C 1011.7 in /  34256.2 hPa SE 27.0 mph /  43.5 km/h 27.0 mph /  43.5 km/h 56 % 0.0 in /  0 mm
15:49 26.1 °F /  -3.3 °C 16.6 °F /  -8.6 °C 1011.7 in /  34256.2 hPa ESE 17.2 mph /  27.7 km/h 17.2 mph /  27.7 km/h 56 % 0.0 in /  0 mm
15:54 26.1 °F /  -3.3 °C 16.6 °F /  -8.6 °C 1011.7 in /  34256.2 hPa ENE 22.2 mph /  35.7 km/h 22.2 mph /  35.7 km/h 56 % 0.0 in /  0 mm
15:59 26.6 °F /  -3 °C 17.1 °F /  -8.3 °C 1011.7 in /  34256.2 hPa SE 13.0 mph /  20.9 km/h 13.0 mph /  20.9 km/h 56 % 0.0 in /  0 mm
16:04 26.9 °F /  -2.8 °C 17.4 °F /  -8.1 °C 1011.7 in /  34256.2 hPa ESE 18.5 mph /  29.8 km/h 18.5 mph /  29.8 km/h 56 % 0.0 in /  0 mm
16:09 27.0 °F /  -2.8 °C 17.2 °F /  -8.2 °C 1011.7 in /  34256.2 hPa East 24.1 mph /  38.8 km/h 24.1 mph /  38.8 km/h 55 % 0.0 in /  0 mm
16:14 26.9 °F /  -2.8 °C 17.4 °F /  -8.1 °C 1011.7 in /  34256.2 hPa East 19.8 mph /  31.9 km/h 19.8 mph /  31.9 km/h 56 % 0.0 in /  0 mm
16:19 27.0 °F /  -2.8 °C 17.2 °F /  -8.2 °C 1011.7 in /  34256.2 hPa ENE 14.8 mph /  23.8 km/h 14.8 mph /  23.8 km/h 55 % 0.0 in /  0 mm
16:24 26.6 °F /  -3 °C 17.4 °F /  -8.1 °C 1011.7 in /  34256.2 hPa East 20.4 mph /  32.8 km/h 20.4 mph /  32.8 km/h 57 % 0.0 in /  0 mm
16:29 26.7 °F /  -2.9 °C 17.5 °F /  -8.1 °C 1011.7 in /  34256.2 hPa East 20.4 mph /  32.8 km/h 20.4 mph /  32.8 km/h 57 % 0.0 in /  0 mm
16:34 26.7 °F /  -2.9 °C 17.5 °F /  -8.1 °C 1011.7 in /  34256.2 hPa SE 22.2 mph /  35.7 km/h 22.2 mph /  35.7 km/h 57 % 0.0 in /  0 mm
16:39 26.7 °F /  -2.9 °C 17.5 °F /  -8.1 °C 1011.7 in /  34256.2 hPa East 22.2 mph /  35.7 km/h 22.2 mph /  35.7 km/h 57 % 0.0 in /  0 mm
16:44 26.6 °F /  -3 °C 17.4 °F /  -8.1 °C 1011.7 in /  34256.2 hPa ESE 24.1 mph /  38.8 km/h 24.1 mph /  38.8 km/h 57 % 0.0 in /  0 mm
16:49 26.8 °F /  -2.9 °C 17.8 °F /  -7.9 °C 1011.7 in /  34256.2 hPa ESE 20.4 mph /  32.8 km/h 20.4 mph /  32.8 km/h 58 % 0.0 in /  0 mm
16:54 26.6 °F /  -3 °C 17.4 °F /  -8.1 °C 1011.7 in /  34256.2 hPa ESE 22.0 mph /  35.4 km/h 22.0 mph /  35.4 km/h 57 % 0.0 in /  0 mm
16:59 26.6 °F /  -3 °C 17.7 °F /  -7.9 °C 1011.7 in /  34256.2 hPa ESE 22.5 mph /  36.2 km/h 22.5 mph /  36.2 km/h 58 % 0.0 in /  0 mm
17:04 26.8 °F /  -2.9 °C 17.6 °F /  -8 °C 1011.7 in /  34256.2 hPa ENE 14.8 mph /  23.8 km/h 14.8 mph /  23.8 km/h 57 % 0.0 in /  0 mm
17:09 26.8 °F /  -2.9 °C 17.6 °F /  -8 °C 1011.7 in /  34256.2 hPa ENE 13.0 mph /  20.9 km/h 13.0 mph /  20.9 km/h 57 % 0.0 in /  0 mm
17:14 26.9 °F /  -2.8 °C 17.7 °F /  -7.9 °C 1011.7 in /  34256.2 hPa ESE 16.7 mph /  26.9 km/h 16.7 mph /  26.9 km/h 57 % 0.0 in /  0 mm
17:19 27.1 °F /  -2.7 °C 17.3 °F /  -8.2 °C 1011.7 in /  34256.2 hPa East 20.1 mph /  32.3 km/h 20.1 mph /  32.3 km/h 55 % 0.0 in /  0 mm
17:24 27.2 °F /  -2.7 °C 17.4 °F /  -8.1 °C 1011.7 in /  34256.2 hPa ESE 20.4 mph /  32.8 km/h 20.4 mph /  32.8 km/h 55 % 0.0 in /  0 mm
17:29 27.1 °F /  -2.7 °C 17.3 °F /  -8.2 °C 1011.7 in /  34256.2 hPa East 18.5 mph /  29.8 km/h 18.5 mph /  29.8 km/h 55 % 0.0 in /  0 mm
17:34 27.4 °F /  -2.6 °C 17.6 °F /  -8 °C 1011.7 in /  34256.2 hPa ESE 14.8 mph /  23.8 km/h 14.8 mph /  23.8 km/h 55 % 0.0 in /  0 mm
17:39 27.3 °F /  -2.6 °C 16.9 °F /  -8.4 °C 1010.7 in /  34222.3 hPa East 18.5 mph /  29.8 km/h 18.5 mph /  29.8 km/h 53 % 0.0 in /  0 mm
17:44 27.4 °F /  -2.6 °C 17.0 °F /  -8.3 °C 1010.7 in /  34222.3 hPa NE 20.4 mph /  32.8 km/h 20.4 mph /  32.8 km/h 53 % 0.0 in /  0 mm
17:49 27.3 °F /  -2.6 °C 16.9 °F /  -8.4 °C 1010.7 in /  34222.3 hPa ENE 16.7 mph /  26.9 km/h 16.7 mph /  26.9 km/h 53 % 0.0 in /  0 mm
17:54 27.4 °F /  -2.6 °C 17.0 °F /  -8.3 °C 1010.7 in /  34222.3 hPa ENE 14.8 mph /  23.8 km/h 14.8 mph /  23.8 km/h 53 % 0.0 in /  0 mm
17:59 27.3 °F /  -2.6 °C 17.2 °F /  -8.2 °C 1010.7 in /  34222.3 hPa ENE 14.8 mph /  23.8 km/h 14.8 mph /  23.8 km/h 54 % 0.0 in /  0 mm
18:04 27.5 °F /  -2.5 °C 17.4 °F /  -8.1 °C 1010.7 in /  34222.3 hPa NE 13.0 mph /  20.9 km/h 13.0 mph /  20.9 km/h 54 % 0.0 in /  0 mm
18:09 27.6 °F /  -2.4 °C 17.2 °F /  -8.2 °C 1010.0 in /  34198.6 hPa East 16.7 mph /  26.9 km/h 16.7 mph /  26.9 km/h 53 % 0.0 in /  0 mm
18:14 27.7 °F /  -2.4 °C 17.3 °F /  -8.2 °C 1010.0 in /  34198.6 hPa SE 14.0 mph /  22.5 km/h 14.0 mph /  22.5 km/h 53 % 0.0 in /  0 mm
18:15 27.7 °F /  -2.4 °C 17.3 °F /  -8.2 °C 1010.0 in /  34198.6 hPa ESE 16.7 mph /  26.9 km/h 16.7 mph /  26.9 km/h 53 % 0.0 in /  0 mm
18:20 27.4 °F /  -2.6 °C 17.0 °F /  -8.3 °C 1010.0 in /  34198.6 hPa ENE 9.3 mph /  15 km/h 9.3 mph /  15 km/h 53 % 0.0 in /  0 mm
18:25 27.5 °F /  -2.5 °C 17.1 °F /  -8.3 °C 1010.7 in /  34222.3 hPa ESE 14.8 mph /  23.8 km/h 14.8 mph /  23.8 km/h 53 % 0.0 in /  0 mm
18:28 27.6 °F /  -2.4 °C 17.2 °F /  -8.2 °C 1010.7 in /  34222.3 hPa ESE 11.1 mph /  17.9 km/h 11.1 mph /  17.9 km/h 53 % 0.0 in /  0 mm
18:33 27.5 °F /  -2.5 °C 17.1 °F /  -8.3 °C 1010.7 in /  34222.3 hPa ESE 16.7 mph /  26.9 km/h 16.7 mph /  26.9 km/h 53 % 0.0 in /  0 mm
18:38 27.5 °F /  -2.5 °C 17.1 °F /  -8.3 °C 1010.7 in /  34222.3 hPa ESE 14.8 mph /  23.8 km/h 14.8 mph /  23.8 km/h 53 % 0.0 in /  0 mm
18:43 27.4 °F /  -2.6 °C 17.3 °F /  -8.2 °C 1010.7 in /  34222.3 hPa ESE 11.1 mph /  17.9 km/h 11.1 mph /  17.9 km/h 54 % 0.0 in /  0 mm
18:48 27.6 °F /  -2.4 °C 17.4 °F /  -8.1 °C 1010.7 in /  34222.3 hPa ESE 11.1 mph /  17.9 km/h 11.1 mph /  17.9 km/h 54 % 0.0 in /  0 mm
18:53 27.5 °F /  -2.5 °C 17.4 °F /  -8.1 °C 1010.7 in /  34222.3 hPa ESE 13.0 mph /  20.9 km/h 13.0 mph /  20.9 km/h 54 % 0.0 in /  0 mm
18:58 27.5 °F /  -2.5 °C 17.4 °F /  -8.1 °C 1010.7 in /  34222.3 hPa East 9.3 mph /  15 km/h 10.3 mph /  16.6 km/h 54 % 0.0 in /  0 mm
19:03 27.6 °F /  -2.4 °C 17.4 °F /  -8.1 °C 1010.7 in /  34222.3 hPa ESE 11.1 mph /  17.9 km/h 11.1 mph /  17.9 km/h 54 % 0.0 in /  0 mm
19:08 27.4 °F /  -2.6 °C 17.0 °F /  -8.3 °C 1010.7 in /  34222.3 hPa ENE 7.4 mph /  11.9 km/h 7.4 mph /  11.9 km/h 53 % 0.0 in /  0 mm
19:13 27.4 °F /  -2.6 °C 17.3 °F /  -8.2 °C 1010.0 in /  34198.6 hPa ESE 9.3 mph /  15 km/h 9.5 mph /  15.3 km/h 54 % 0.0 in /  0 mm
19:18 27.3 °F /  -2.6 °C 17.2 °F /  -8.2 °C 1010.0 in /  34198.6 hPa NE 13.0 mph /  20.9 km/h 13.0 mph /  20.9 km/h 54 % 0.0 in /  0 mm
19:23 27.2 °F /  -2.7 °C 17.4 °F /  -8.1 °C 1010.0 in /  34198.6 hPa ESE 12.2 mph /  19.6 km/h 12.2 mph /  19.6 km/h 55 % 0.0 in /  0 mm
19:28 27.0 °F /  -2.8 °C 17.5 °F /  -8.1 °C 1010.0 in /  34198.6 hPa ESE 13.0 mph /  20.9 km/h 13.0 mph /  20.9 km/h 56 % 0.0 in /  0 mm
19:33 27.0 °F /  -2.8 °C 17.8 °F /  -7.9 °C 1010.0 in /  34198.6 hPa SSE 11.1 mph /  17.9 km/h 11.1 mph /  17.9 km/h 57 % 0.0 in /  0 mm
19:38 26.9 °F /  -2.8 °C 17.9 °F /  -7.8 °C 1010.0 in /  34198.6 hPa ESE 11.1 mph /  17.9 km/h 11.1 mph /  17.9 km/h 58 % 0.0 in /  0 mm
19:40 22.6 °F /  -5.2 °C 18.4 °F /  -7.6 °C 1011.7 in /  34256.2 hPa WNW 1.6 mph /  2.6 km/h 3.2 mph /  5.1 km/h 77 % 0.0 in /  0 mm
19:43 26.9 °F /  -2.8 °C 17.9 °F /  -7.8 °C 1010.0 in /  34198.6 hPa ESE 14.8 mph /  23.8 km/h 14.8 mph /  23.8 km/h 58 % 0.0 in /  0 mm
19:48 26.8 °F /  -2.9 °C 17.8 °F /  -7.9 °C 1010.0 in /  34198.6 hPa SE 7.9 mph /  12.7 km/h 7.9 mph /  12.7 km/h 58 % 0.0 in /  0 mm
19:50 22.6 °F /  -5.2 °C 18.4 °F /  -7.6 °C 1010.7 in /  34222.3 hPa NE 1.6 mph /  2.6 km/h 1.6 mph /  2.6 km/h 77 % 0.0 in /  0 mm
19:53 26.6 °F /  -3 °C 17.7 °F /  -7.9 °C 1010.0 in /  34198.6 hPa ESE 7.4 mph /  11.9 km/h 7.4 mph /  11.9 km/h 58 % 0.0 in /  0 mm
19:58 26.5 °F /  -3.1 °C 17.8 °F /  -7.9 °C 1010.0 in /  34198.6 hPa ESE 9.3 mph /  15 km/h 9.3 mph /  15 km/h 59 % 0.0 in /  0 mm
20:00 22.5 °F /  -5.3 °C 18.3 °F /  -7.6 °C 1010.7 in /  34222.3 hPa Calm   1.6 mph /  2.6 km/h 77 % 0.0 in /  0 mm
20:03 26.3 °F /  -3.2 °C 17.7 °F /  -7.9 °C 1010.0 in /  34198.6 hPa ESE 9.3 mph /  15 km/h 9.3 mph /  15 km/h 59 % 0.0 in /  0 mm
20:08 26.2 °F /  -3.2 °C 17.8 °F /  -7.9 °C 1010.0 in /  34198.6 hPa ESE 7.4 mph /  11.9 km/h 7.4 mph /  11.9 km/h 60 % 0.0 in /  0 mm
20:10 22.5 °F /  -5.3 °C 18.3 °F /  -7.6 °C 1010.7 in /  34222.3 hPa Calm   1.6 mph /  2.6 km/h 77 % 0.0 in /  0 mm
20:13 26.0 °F /  -3.3 °C 17.6 °F /  -8 °C 1010.0 in /  34198.6 hPa ESE 11.1 mph /  17.9 km/h 11.1 mph /  17.9 km/h 60 % 0.0 in /  0 mm
20:18 25.9 °F /  -3.4 °C 17.6 °F /  -8 °C 1010.0 in /  34198.6 hPa East 7.4 mph /  11.9 km/h 7.4 mph /  11.9 km/h 60 % 0.0 in /  0 mm
20:20 22.5 °F /  -5.3 °C 18.4 °F /  -7.6 °C 1010.7 in /  34222.3 hPa NNE 1.6 mph /  2.6 km/h 1.6 mph /  2.6 km/h 78 % 0.0 in /  0 mm
20:23 25.8 °F /  -3.4 °C 17.7 °F /  -7.9 °C 1010.0 in /  34198.6 hPa ESE 10.3 mph /  16.6 km/h 10.3 mph /  16.6 km/h 61 % 0.0 in /  0 mm
20:28 25.5 °F /  -3.6 °C 17.7 °F /  -7.9 °C 1010.0 in /  34198.6 hPa ENE 11.1 mph /  17.9 km/h 11.1 mph /  17.9 km/h 62 % 0.0 in /  0 mm
20:30 22.4 °F /  -5.3 °C 18.4 °F /  -7.6 °C 1010.7 in /  34222.3 hPa Calm   3.2 mph /  5.1 km/h 78 % 0.0 in /  0 mm
20:33 25.4 °F /  -3.7 °C 17.6 °F /  -8 °C 1010.0 in /  34198.6 hPa ENE 14.8 mph /  23.8 km/h 14.8 mph /  23.8 km/h 62 % 0.0 in /  0 mm
20:38 25.3 °F /  -3.7 °C 17.7 °F /  -7.9 °C 1010.0 in /  34198.6 hPa East 9.3 mph /  15 km/h 9.3 mph /  15 km/h 63 % 0.0 in /  0 mm
20:40 22.3 °F /  -5.4 °C 18.3 °F /  -7.6 °C 1010.7 in /  34222.3 hPa Calm   1.6 mph /  2.6 km/h 78 % 0.0 in /  0 mm
20:43 25.1 °F /  -3.8 °C 17.8 °F /  -7.9 °C 1010.0 in /  34198.6 hPa ESE 13.0 mph /  20.9 km/h 13.0 mph /  20.9 km/h 64 % 0.0 in /  0 mm
20:48 25.0 °F /  -3.9 °C 17.7 °F /  -7.9 °C 1010.0 in /  34198.6 hPa ESE 13.7 mph /  22 km/h 13.7 mph /  22 km/h 64 % 0.0 in /  0 mm
20:50 22.2 °F /  -5.4 °C 18.2 °F /  -7.7 °C 1010.7 in /  34222.3 hPa Calm     78 % 0.0 in /  0 mm
20:53 24.8 °F /  -4 °C 18.3 °F /  -7.6 °C 1010.0 in /  34198.6 hPa ESE 13.0 mph /  20.9 km/h 13.0 mph /  20.9 km/h 67 % 0.0 in /  0 mm
20:58 24.7 °F /  -4.1 °C 18.2 °F /  -7.7 °C 1010.0 in /  34198.6 hPa ESE 9.3 mph /  15 km/h 9.3 mph /  15 km/h 67 % 0.0 in /  0 mm
21:00 22.2 °F /  -5.4 °C 18.2 °F /  -7.7 °C 1010.7 in /  34222.3 hPa Calm   1.6 mph /  2.6 km/h 78 % 0.0 in /  0 mm
21:03 24.7 °F /  -4.1 °C 18.2 °F /  -7.7 °C 1010.0 in /  34198.6 hPa ESE 7.4 mph /  11.9 km/h 7.4 mph /  11.9 km/h 67 % 0.0 in /  0 mm
21:08 24.6 °F /  -4.1 °C 18.3 °F /  -7.6 °C 1010.0 in /  34198.6 hPa ENE 11.1 mph /  17.9 km/h 11.1 mph /  17.9 km/h 68 % 0.0 in /  0 mm
21:10 22.1 °F /  -5.5 °C 18.1 °F /  -7.7 °C 1010.7 in /  34222.3 hPa WNW 1.6 mph /  2.6 km/h 1.6 mph /  2.6 km/h 78 % 0.0 in /  0 mm
21:13 24.5 °F /  -4.2 °C 18.2 °F /  -7.7 °C 1010.0 in /  34198.6 hPa SE 6.4 mph /  10.3 km/h 6.4 mph /  10.3 km/h 68 % 0.0 in /  0 mm
21:18 24.4 °F /  -4.2 °C 18.1 °F /  -7.7 °C 1010.0 in /  34198.6 hPa ESE 7.4 mph /  11.9 km/h 7.4 mph /  11.9 km/h 68 % 0.0 in /  0 mm
21:20 21.9 °F /  -5.6 °C 18.1 °F /  -7.7 °C 1010.7 in /  34222.3 hPa Calm   3.2 mph /  5.1 km/h 79 % 0.0 in /  0 mm
21:23 24.3 °F /  -4.3 °C 18.2 °F /  -7.7 °C 1010.0 in /  34198.6 hPa ESE 10.0 mph /  16.1 km/h 10.0 mph /  16.1 km/h 69 % 0.0 in /  0 mm
21:28 24.3 °F /  -4.3 °C 18.5 °F /  -7.5 °C 1009.0 in /  34164.7 hPa East 11.1 mph /  17.9 km/h 11.1 mph /  17.9 km/h 70 % 0.0 in /  0 mm
21:30 22.0 °F /  -5.6 °C 18.2 °F /  -7.7 °C 1010.7 in /  34222.3 hPa Calm   3.2 mph /  5.1 km/h 79 % 0.0 in /  0 mm
21:33 24.2 °F /  -4.3 °C 18.4 °F /  -7.6 °C 1009.0 in /  34164.7 hPa ENE 11.1 mph /  17.9 km/h 11.1 mph /  17.9 km/h 70 % 0.0 in /  0 mm
21:38 24.1 °F /  -4.4 °C 18.3 °F /  -7.6 °C 1009.0 in /  34164.7 hPa ENE 7.4 mph /  11.9 km/h 7.4 mph /  11.9 km/h 70 % 0.0 in /  0 mm
21:40 21.8 °F /  -5.7 °C 17.6 °F /  -8 °C 1010.7 in /  34222.3 hPa SE 1.6 mph /  2.6 km/h 3.2 mph /  5.1 km/h 77 % 0.0 in /  0 mm
21:43 24.1 °F /  -4.4 °C 18.3 °F /  -7.6 °C 1010.0 in /  34198.6 hPa East 9.0 mph /  14.5 km/h 9.0 mph /  14.5 km/h 70 % 0.0 in /  0 mm
21:48 24.0 °F /  -4.4 °C 18.2 °F /  -7.7 °C 1010.0 in /  34198.6 hPa ESE 9.3 mph /  15 km/h 9.3 mph /  15 km/h 70 % 0.0 in /  0 mm
21:50 21.8 °F /  -5.7 °C 17.6 °F /  -8 °C 1010.0 in /  34198.6 hPa SW 1.6 mph /  2.6 km/h 3.2 mph /  5.1 km/h 77 % 0.0 in /  0 mm
21:53 24.0 °F /  -4.4 °C 18.4 °F /  -7.6 °C 1010.0 in /  34198.6 hPa ESE 7.4 mph /  11.9 km/h 7.4 mph /  11.9 km/h 71 % 0.0 in /  0 mm
21:58 23.9 °F /  -4.5 °C 18.6 °F /  -7.4 °C 1010.0 in /  34198.6 hPa NNE 5.6 mph /  9 km/h 5.6 mph /  9 km/h 72 % 0.0 in /  0 mm
22:00 21.7 °F /  -5.7 °C 17.1 °F /  -8.3 °C 1010.0 in /  34198.6 hPa WSW 4.8 mph /  7.7 km/h 4.8 mph /  7.7 km/h 75 % 0.0 in /  0 mm
22:03 23.9 °F /  -4.5 °C 18.3 °F /  -7.6 °C 1010.0 in /  34198.6 hPa ENE 3.7 mph /  6 km/h 3.7 mph /  6 km/h 71 % 0.0 in /  0 mm
22:08 23.8 °F /  -4.6 °C 18.4 °F /  -7.6 °C 1010.0 in /  34198.6 hPa North 3.7 mph /  6 km/h 3.7 mph /  6 km/h 72 % 0.0 in /  0 mm
22:10 21.6 °F /  -5.8 °C 17.0 °F /  -8.3 °C 1010.0 in /  34198.6 hPa WSW 1.6 mph /  2.6 km/h 3.2 mph /  5.1 km/h 75 % 0.0 in /  0 mm
22:13 23.7 °F /  -4.6 °C 18.3 °F /  -7.6 °C 1010.7 in /  34222.3 hPa NE 3.7 mph /  6 km/h 3.7 mph /  6 km/h 72 % 0.0 in /  0 mm
22:18 23.6 °F /  -4.7 °C 18.3 °F /  -7.6 °C 1010.7 in /  34222.3 hPa East 5.6 mph /  9 km/h 5.6 mph /  9 km/h 72 % 0.0 in /  0 mm
22:20 21.5 °F /  -5.8 °C 16.4 °F /  -8.7 °C 1010.0 in /  34198.6 hPa Calm   1.6 mph /  2.6 km/h 73 % 0.0 in /  0 mm
22:23 23.6 °F /  -4.7 °C 18.3 °F /  -7.6 °C 1010.7 in /  34222.3 hPa East 5.6 mph /  9 km/h 5.6 mph /  9 km/h 72 % 0.0 in /  0 mm
22:28 23.6 °F /  -4.7 °C 18.3 °F /  -7.6 °C 1010.7 in /  34222.3 hPa ENE 3.7 mph /  6 km/h 3.7 mph /  6 km/h 72 % 0.0 in /  0 mm
22:30 21.6 °F /  -5.8 °C 16.3 °F /  -8.7 °C 1010.0 in /  34198.6 hPa Calm   3.2 mph /  5.1 km/h 72 % 0.0 in /  0 mm
22:33 23.5 °F /  -4.7 °C 18.2 °F /  -7.7 °C 1010.7 in /  34222.3 hPa ENE 5.6 mph /  9 km/h 5.6 mph /  9 km/h 72 % 0.0 in /  0 mm
22:38 23.5 °F /  -4.7 °C 18.4 °F /  -7.6 °C 1010.7 in /  34222.3 hPa ENE 3.9 mph /  6.3 km/h 3.9 mph /  6.3 km/h 73 % 0.0 in /  0 mm
22:40 21.4 °F /  -5.9 °C 16.2 °F /  -8.8 °C 1010.0 in /  34198.6 hPa Calm   1.6 mph /  2.6 km/h 72 % 0.0 in /  0 mm
22:43 23.5 °F /  -4.7 °C 18.4 °F /  -7.6 °C 1011.7 in /  34256.2 hPa ESE 3.9 mph /  6.3 km/h 3.9 mph /  6.3 km/h 73 % 0.0 in /  0 mm
22:48 23.5 °F /  -4.7 °C 18.6 °F /  -7.4 °C 1011.7 in /  34256.2 hPa East 7.4 mph /  11.9 km/h 7.4 mph /  11.9 km/h 74 % 0.0 in /  0 mm
22:50 21.0 °F /  -6.1 °C 15.8 °F /  -9 °C 1010.0 in /  34198.6 hPa WSW 1.6 mph /  2.6 km/h 3.2 mph /  5.1 km/h 72 % 0.0 in /  0 mm
22:53 23.5 °F /  -4.7 °C 18.6 °F /  -7.4 °C 1011.7 in /  34256.2 hPa SE 5.0 mph /  8 km/h 5.0 mph /  8 km/h 74 % 0.0 in /  0 mm
22:58 23.4 °F /  -4.8 °C 18.5 °F /  -7.5 °C 1011.7 in /  34256.2 hPa SE 3.7 mph /  6 km/h 3.7 mph /  6 km/h 74 % 0.0 in /  0 mm
23:00 20.8 °F /  -6.2 °C 15.6 °F /  -9.1 °C 1010.0 in /  34198.6 hPa Calm   3.2 mph /  5.1 km/h 72 % 0.0 in /  0 mm
23:03 23.4 °F /  -4.8 °C 18.5 °F /  -7.5 °C 1011.7 in /  34256.2 hPa ENE 5.0 mph /  8 km/h 5.0 mph /  8 km/h 74 % 0.0 in /  0 mm
23:08 23.4 °F /  -4.8 °C 18.7 °F /  -7.4 °C 1011.7 in /  34256.2 hPa East 3.9 mph /  6.3 km/h 3.9 mph /  6.3 km/h 75 % 0.0 in /  0 mm
23:10 20.8 °F /  -6.2 °C 15.6 °F /  -9.1 °C 1010.0 in /  34198.6 hPa SW 3.2 mph /  5.1 km/h 3.2 mph /  5.1 km/h 72 % 0.0 in /  0 mm
23:13 23.3 °F /  -4.8 °C 18.4 °F /  -7.6 °C 1011.7 in /  34256.2 hPa SE 3.7 mph /  6 km/h 3.7 mph /  6 km/h 74 % 0.0 in /  0 mm
23:18 23.2 °F /  -4.9 °C 18.3 °F /  -7.6 °C 1011.7 in /  34256.2 hPa ENE 1.9 mph /  3.1 km/h 1.9 mph /  3.1 km/h 74 % 0.0 in /  0 mm
23:20 20.7 °F /  -6.3 °C 15.4 °F /  -9.2 °C 1010.0 in /  34198.6 hPa WSW 3.2 mph /  5.1 km/h 6.4 mph /  10.3 km/h 72 % 0.0 in /  0 mm
23:23 23.1 °F /  -4.9 °C 18.2 °F /  -7.7 °C 1011.7 in /  34256.2 hPa SW 3.7 mph /  6 km/h 3.7 mph /  6 km/h 74 % 0.0 in /  0 mm
23:28 23.0 °F /  -5 °C 18.1 °F /  -7.7 °C 1011.7 in /  34256.2 hPa SW 2.3 mph /  3.7 km/h 2.3 mph /  3.7 km/h 74 % 0.0 in /  0 mm
23:30 20.7 °F /  -6.3 °C 15.4 °F /  -9.2 °C 1010.0 in /  34198.6 hPa WSW 1.6 mph /  2.6 km/h 4.8 mph /  7.7 km/h 72 % 0.0 in /  0 mm
23:33 22.8 °F /  -5.1 °C 18.1 °F /  -7.7 °C 1011.7 in /  34256.2 hPa SW 3.7 mph /  6 km/h 3.7 mph /  6 km/h 75 % 0.0 in /  0 mm
23:38 22.8 °F /  -5.1 °C 18.1 °F /  -7.7 °C 1011.7 in /  34256.2 hPa Calm     75 % 0.0 in /  0 mm
23:40 20.5 °F /  -6.4 °C 15.3 °F /  -9.3 °C 1010.0 in /  34198.6 hPa SW 1.6 mph /  2.6 km/h 3.2 mph /  5.1 km/h 72 % 0.0 in /  0 mm
23:43 22.8 °F /  -5.1 °C 18.1 °F /  -7.7 °C 1011.7 in /  34256.2 hPa Calm     75 % 0.0 in /  0 mm
23:48 22.8 °F /  -5.1 °C 18.1 °F /  -7.7 °C 1011.7 in /  34256.2 hPa SW 3.7 mph /  6 km/h 3.7 mph /  6 km/h 75 % 0.0 in /  0 mm
23:50 20.3 °F /  -6.5 °C 15.1 °F /  -9.4 °C 1009.0 in /  34164.7 hPa SW 3.2 mph /  5.1 km/h 3.2 mph /  5.1 km/h 72 % 0.0 in /  0 mm
23:53 22.7 °F /  -5.2 °C 18.1 °F /  -7.7 °C 1011.7 in /  34256.2 hPa SW 3.7 mph /  6 km/h 3.7 mph /  6 km/h 75 % 0.0 in /  0 mm
23:58 22.6 °F /  -5.2 °C 17.9 °F /  -7.8 °C 1011.7 in /  34256.2 hPa WSW 3.7 mph /  6 km/h 3.7 mph /  6 km/h 75 % 0.0 in /  0 mm
Meteo Sesrovires
Elogis d' Weather Underground - 1.5 mb

Guio original per  Jim McMurry - jmcmurry@mwt.net Adaptat per a la plantilla per  Wim van der Kuil - Leuven-Template.eu

Trobareu la nostra informacio del temps tambe a:

Weather Underground

AWEKAS